2026/07/28

Sensor Date Temp./Hum.
h4-hermonville 28-07-2026 - 23:58 24.2°C / 49%
h2-hermonville 28-07-2026 - 23:54 23.4°C / 52%
h1-hermonville 28-07-2026 - 23:54 23.4°C / 52%
h3-hermonville 28-07-2026 - 23:50 23.9°C / 50.5%
h4-hermonville 28-07-2026 - 23:48 24.3°C / 48.5%
h2-hermonville 28-07-2026 - 23:44 23.6°C / 51.5%
h1-hermonville 28-07-2026 - 23:44 23.4°C / 52%
h3-hermonville 28-07-2026 - 23:40 23.8°C / 50.5%
h4-hermonville 28-07-2026 - 23:38 24.4°C / 48%
h2-hermonville 28-07-2026 - 23:34 23.6°C / 52%
h1-hermonville 28-07-2026 - 23:34 23.4°C / 51.5%
h3-hermonville 28-07-2026 - 23:30 23.8°C / 50.5%
h4-hermonville 28-07-2026 - 23:28 24.6°C / 47.5%
h2-hermonville 28-07-2026 - 23:24 23.8°C / 51%
h1-hermonville 28-07-2026 - 23:24 23.7°C / 51%
h3-hermonville 28-07-2026 - 23:20 24.2°C / 49.5%
h4-hermonville 28-07-2026 - 23:18 24.7°C / 47.5%
h2-hermonville 28-07-2026 - 23:14 23.9°C / 51%
h1-hermonville 28-07-2026 - 23:14 23.8°C / 51%
h3-hermonville 28-07-2026 - 23:10 24.2°C / 49.5%
h4-hermonville 28-07-2026 - 23:08 24.8°C / 47.5%
h2-hermonville 28-07-2026 - 23:04 24.1°C / 50.5%
h1-hermonville 28-07-2026 - 23:04 23.9°C / 50.5%
h3-hermonville 28-07-2026 - 23:00 24.3°C / 49.5%
h4-hermonville 28-07-2026 - 22:58 24.9°C / 47%
h2-hermonville 28-07-2026 - 22:54 24.3°C / 50%
h1-hermonville 28-07-2026 - 22:54 24°C / 50%
h3-hermonville 28-07-2026 - 22:50 24.5°C / 48.5%
h4-hermonville 28-07-2026 - 22:48 25°C / 47%
h2-hermonville 28-07-2026 - 22:44 24.7°C / 48.5%
h1-hermonville 28-07-2026 - 22:44 24.1°C / 50%
h3-hermonville 28-07-2026 - 22:40 24.7°C / 47.5%
h2-hermonville 28-07-2026 - 22:34 24.5°C / 49.5%
h1-hermonville 28-07-2026 - 22:34 24.3°C / 50%
h4-hermonville 28-07-2026 - 22:28 25.2°C / 46.5%
h2-hermonville 28-07-2026 - 22:24 24.5°C / 50%
h1-hermonville 28-07-2026 - 22:24 24.4°C / 49.5%
h3-hermonville 28-07-2026 - 22:20 25.1°C / 47.5%
h4-hermonville 28-07-2026 - 22:18 25.4°C / 46.5%
h2-hermonville 28-07-2026 - 22:14 24.9°C / 49.5%
h1-hermonville 28-07-2026 - 22:14 24.7°C / 49.5%
h3-hermonville 28-07-2026 - 22:10 25.1°C / 48%
h4-hermonville 28-07-2026 - 22:08 25.6°C / 46%
h2-hermonville 28-07-2026 - 22:04 25.5°C / 47.5%
h1-hermonville 28-07-2026 - 22:04 24.9°C / 48.5%
h4-hermonville 28-07-2026 - 21:58 25.7°C / 46%
h2-hermonville 28-07-2026 - 21:54 26°C / 47%
h1-hermonville 28-07-2026 - 21:54 25.2°C / 48%
h3-hermonville 28-07-2026 - 21:50 25.9°C / 46%
h4-hermonville 28-07-2026 - 21:48 25.9°C / 45.5%
h2-hermonville 28-07-2026 - 21:44 26.1°C / 47%
h1-hermonville 28-07-2026 - 21:44 25.4°C / 48%
h3-hermonville 28-07-2026 - 21:40 26.2°C / 47%
h4-hermonville 28-07-2026 - 21:38 26.4°C / 45.5%
h2-hermonville 28-07-2026 - 21:34 26.8°C / 47%
h1-hermonville 28-07-2026 - 21:34 26°C / 48%
h3-hermonville 28-07-2026 - 21:30 26.5°C / 45.5%
h4-hermonville 28-07-2026 - 21:28 26.5°C / 44.5%
h1-hermonville 28-07-2026 - 21:24 26.5°C / 46%
h3-hermonville 28-07-2026 - 21:20 27.1°C / 44.5%
h4-hermonville 28-07-2026 - 21:18 26.9°C / 44.5%
h2-hermonville 28-07-2026 - 21:14 27.5°C / 45.5%
h1-hermonville 28-07-2026 - 21:14 26.9°C / 45.5%
h3-hermonville 28-07-2026 - 21:10 27.5°C / 44.5%
h4-hermonville 28-07-2026 - 21:08 27.4°C / 44%
h2-hermonville 28-07-2026 - 21:04 27.5°C / 45.5%
h1-hermonville 28-07-2026 - 21:04 27.5°C / 44%
h3-hermonville 28-07-2026 - 21:00 27.9°C / 42.5%
h4-hermonville 28-07-2026 - 20:58 27.9°C / 40.5%
h2-hermonville 28-07-2026 - 20:54 26.8°C / 42.5%
h1-hermonville 28-07-2026 - 20:54 28.2°C / 40.5%
h3-hermonville 28-07-2026 - 20:50 28.2°C / 38%
h4-hermonville 28-07-2026 - 20:48 28.4°C / 37.5%
h2-hermonville 28-07-2026 - 20:44 27°C / 41.5%
h1-hermonville 28-07-2026 - 20:44 28.7°C / 37%
h3-hermonville 28-07-2026 - 20:40 28.3°C / 37.5%
h4-hermonville 28-07-2026 - 20:38 28.8°C / 36.5%
h2-hermonville 28-07-2026 - 20:34 27.3°C / 40.5%
h1-hermonville 28-07-2026 - 20:34 28.9°C / 36.5%
h3-hermonville 28-07-2026 - 20:30 28.5°C / 37.5%
h4-hermonville 28-07-2026 - 20:28 29°C / 36%
h2-hermonville 28-07-2026 - 20:24 27.6°C / 40%
h1-hermonville 28-07-2026 - 20:24 29.1°C / 36%
h3-hermonville 28-07-2026 - 20:20 28.6°C / 37%
h4-hermonville 28-07-2026 - 20:18 29.1°C / 35%
h2-hermonville 28-07-2026 - 20:14 28°C / 39%
h1-hermonville 28-07-2026 - 20:14 28.9°C / 35.5%
h3-hermonville 28-07-2026 - 20:10 28.7°C / 36.5%
h4-hermonville 28-07-2026 - 20:08 29.1°C / 35%
h2-hermonville 28-07-2026 - 20:04 29°C / 36.5%
h1-hermonville 28-07-2026 - 20:04 28.9°C / 35.5%
h3-hermonville 28-07-2026 - 20:00 28.8°C / 36.5%
h4-hermonville 28-07-2026 - 19:58 29°C / 35%
h2-hermonville 28-07-2026 - 19:54 31.3°C / 33.5%
h1-hermonville 28-07-2026 - 19:54 29°C / 36%
h3-hermonville 28-07-2026 - 19:50 28.8°C / 36%
h4-hermonville 28-07-2026 - 19:48 29.2°C / 35.5%
h2-hermonville 28-07-2026 - 19:44 31.4°C / 33.5%
h1-hermonville 28-07-2026 - 19:44 29.3°C / 35.5%
h3-hermonville 28-07-2026 - 19:40 28.7°C / 37%
h4-hermonville 28-07-2026 - 19:38 29.1°C / 35.5%
h2-hermonville 28-07-2026 - 19:34 31.9°C / 33%
h1-hermonville 28-07-2026 - 19:34 28.9°C / 36%
h3-hermonville 28-07-2026 - 19:30 28.6°C / 37%
h4-hermonville 28-07-2026 - 19:28 29.3°C / 35.5%
h2-hermonville 28-07-2026 - 19:24 31.9°C / 32.5%
h1-hermonville 28-07-2026 - 19:24 29.4°C / 35.5%
h3-hermonville 28-07-2026 - 19:20 28.4°C / 37.5%
h4-hermonville 28-07-2026 - 19:18 29.3°C / 35%
h2-hermonville 28-07-2026 - 19:14 32.3°C / 32%
h1-hermonville 28-07-2026 - 19:14 29.1°C / 36%
h3-hermonville 28-07-2026 - 19:10 28.5°C / 37.5%
h4-hermonville 28-07-2026 - 19:08 29.4°C / 35%
h2-hermonville 28-07-2026 - 19:04 32.1°C / 32%
h1-hermonville 28-07-2026 - 19:04 29.3°C / 35.5%
h3-hermonville 28-07-2026 - 19:00 28.5°C / 37%
h4-hermonville 28-07-2026 - 18:58 29.3°C / 35%
h2-hermonville 28-07-2026 - 18:54 32°C / 32.5%
h1-hermonville 28-07-2026 - 18:54 29.5°C / 35.5%
h3-hermonville 28-07-2026 - 18:50 29°C / 36%
h4-hermonville 28-07-2026 - 18:48 29.2°C / 35%
h2-hermonville 28-07-2026 - 18:44 32.3°C / 32%
h1-hermonville 28-07-2026 - 18:44 29.5°C / 35.5%
h3-hermonville 28-07-2026 - 18:40 29.2°C / 35.5%
h4-hermonville 28-07-2026 - 18:38 29°C / 35.5%
h2-hermonville 28-07-2026 - 18:34 32.5°C / 32%
h1-hermonville 28-07-2026 - 18:34 29.8°C / 35%
h3-hermonville 28-07-2026 - 18:30 29.3°C / 35.5%
h4-hermonville 28-07-2026 - 18:28 28.9°C / 35.5%
h2-hermonville 28-07-2026 - 18:24 32.8°C / 31.5%
h1-hermonville 28-07-2026 - 18:24 29.6°C / 35%
h3-hermonville 28-07-2026 - 18:20 29.4°C / 35%
h4-hermonville 28-07-2026 - 18:18 29°C / 35.5%
h2-hermonville 28-07-2026 - 18:14 32.6°C / 30.5%
h1-hermonville 28-07-2026 - 18:14 29.6°C / 35%
h3-hermonville 28-07-2026 - 18:10 29.5°C / 35%
h4-hermonville 28-07-2026 - 18:08 29°C / 35.5%
h2-hermonville 28-07-2026 - 18:04 32.5°C / 32%
h1-hermonville 28-07-2026 - 18:04 29.8°C / 34.5%
h3-hermonville 28-07-2026 - 18:00 29.4°C / 35%
h4-hermonville 28-07-2026 - 17:58 29°C / 36%
h2-hermonville 28-07-2026 - 17:54 32.7°C / 31.5%
h1-hermonville 28-07-2026 - 17:54 29.7°C / 35%
h3-hermonville 28-07-2026 - 17:50 30°C / 34%
h4-hermonville 28-07-2026 - 17:48 28.3°C / 36.5%
h2-hermonville 28-07-2026 - 17:44 33.1°C / 31%
h1-hermonville 28-07-2026 - 17:44 29.5°C / 34.5%
h3-hermonville 28-07-2026 - 17:40 29.7°C / 34.5%
h4-hermonville 28-07-2026 - 17:38 28.3°C / 36.5%
h2-hermonville 28-07-2026 - 17:34 33°C / 31%
h1-hermonville 28-07-2026 - 17:34 29.7°C / 34.5%
h3-hermonville 28-07-2026 - 17:30 29.9°C / 34.5%
h4-hermonville 28-07-2026 - 17:28 28.4°C / 36.5%
h2-hermonville 28-07-2026 - 17:24 33.9°C / 30%
h1-hermonville 28-07-2026 - 17:24 29.4°C / 35.5%
h3-hermonville 28-07-2026 - 17:20 29.8°C / 34.5%
h4-hermonville 28-07-2026 - 17:18 28.4°C / 36.5%
h2-hermonville 28-07-2026 - 17:14 32.2°C / 31.5%
h1-hermonville 28-07-2026 - 17:14 29.3°C / 36%
h3-hermonville 28-07-2026 - 17:10 29.8°C / 34.5%
h4-hermonville 28-07-2026 - 17:08 28.5°C / 36%
h2-hermonville 28-07-2026 - 17:04 31.7°C / 33%
h1-hermonville 28-07-2026 - 17:04 28.8°C / 36.5%
h3-hermonville 28-07-2026 - 17:00 29.9°C / 34%
h4-hermonville 28-07-2026 - 16:58 28.5°C / 35.5%
h1-hermonville 28-07-2026 - 16:54 28.8°C / 36.5%
h3-hermonville 28-07-2026 - 16:50 29.4°C / 35%
h4-hermonville 28-07-2026 - 16:48 28.4°C / 36.5%
h2-hermonville 28-07-2026 - 16:44 30.3°C / 35%
h1-hermonville 28-07-2026 - 16:44 28.7°C / 36.5%
h3-hermonville 28-07-2026 - 16:40 29°C / 35.5%
h2-hermonville 28-07-2026 - 16:34 29.6°C / 36%
h1-hermonville 28-07-2026 - 16:34 28.5°C / 37%
h3-hermonville 28-07-2026 - 16:30 28.4°C / 36.5%
h2-hermonville 28-07-2026 - 16:24 29.1°C / 37%
h1-hermonville 28-07-2026 - 16:24 28.7°C / 36.5%
h3-hermonville 28-07-2026 - 16:20 28.4°C / 36.5%
h2-hermonville 28-07-2026 - 16:14 28.3°C / 39%
h1-hermonville 28-07-2026 - 16:14 28.6°C / 36.5%
h3-hermonville 28-07-2026 - 16:10 28.2°C / 37.5%
h2-hermonville 28-07-2026 - 16:04 27.9°C / 39.5%
h1-hermonville 28-07-2026 - 16:04 28.2°C / 37.5%
h3-hermonville 28-07-2026 - 16:00 27.8°C / 38.5%
h2-hermonville 28-07-2026 - 15:54 27.6°C / 39.5%
h1-hermonville 28-07-2026 - 15:54 27.9°C / 38%
h3-hermonville 28-07-2026 - 15:50 28.2°C / 38%
h2-hermonville 28-07-2026 - 15:44 27.1°C / 41%
h1-hermonville 28-07-2026 - 15:44 27.9°C / 38%
h3-hermonville 28-07-2026 - 15:40 27.8°C / 38.5%
h4-hermonville 28-07-2026 - 15:38 28°C / 37.5%
h2-hermonville 28-07-2026 - 15:34 26.8°C / 41.5%
h1-hermonville 28-07-2026 - 15:34 27.7°C / 39%
h3-hermonville 28-07-2026 - 15:30 28.1°C / 38.5%
h4-hermonville 28-07-2026 - 15:28 27.9°C / 37.5%
h2-hermonville 28-07-2026 - 15:24 26.6°C / 42.5%
h1-hermonville 28-07-2026 - 15:24 27.5°C / 39%
h3-hermonville 28-07-2026 - 15:20 27.8°C / 39%
h2-hermonville 28-07-2026 - 15:14 26°C / 44%
h1-hermonville 28-07-2026 - 15:14 27.4°C / 39.5%
h3-hermonville 28-07-2026 - 15:10 28.2°C / 38%
h2-hermonville 28-07-2026 - 15:04 25.4°C / 45%
h1-hermonville 28-07-2026 - 15:04 27.4°C / 39%
h3-hermonville 28-07-2026 - 15:00 28.1°C / 38.5%
h4-hermonville 28-07-2026 - 14:58 27.7°C / 38.5%
h2-hermonville 28-07-2026 - 14:54 25.9°C / 44%
h1-hermonville 28-07-2026 - 14:54 26.8°C / 40.5%
h3-hermonville 28-07-2026 - 14:50 27.7°C / 39%
h1-hermonville 28-07-2026 - 14:44 26.6°C / 41.5%
h3-hermonville 28-07-2026 - 14:40 27.8°C / 39.5%
h2-hermonville 28-07-2026 - 14:34 27.8°C / 40%
h1-hermonville 28-07-2026 - 14:34 26.2°C / 42.5%
h3-hermonville 28-07-2026 - 14:30 27.5°C / 39.5%
h4-hermonville 28-07-2026 - 14:28 27°C / 40%
h2-hermonville 28-07-2026 - 14:24 27.1°C / 41%
h1-hermonville 28-07-2026 - 14:24 26°C / 42.5%
h3-hermonville 28-07-2026 - 14:20 27.5°C / 39.5%
h2-hermonville 28-07-2026 - 14:14 26°C / 44%
h1-hermonville 28-07-2026 - 14:14 26°C / 43%
h3-hermonville 28-07-2026 - 14:10 27.4°C / 40%
h1-hermonville 28-07-2026 - 14:04 25.9°C / 43%
h3-hermonville 28-07-2026 - 14:00 26.7°C / 41.5%
h2-hermonville 28-07-2026 - 13:54 24.9°C / 45.5%
h1-hermonville 28-07-2026 - 13:54 25.6°C / 43.5%
h3-hermonville 28-07-2026 - 13:50 26.6°C / 41.5%
h4-hermonville 28-07-2026 - 13:48 26.6°C / 40%
h2-hermonville 28-07-2026 - 13:44 24.7°C / 46%
h1-hermonville 28-07-2026 - 13:44 25.3°C / 44%
h3-hermonville 28-07-2026 - 13:40 26.7°C / 41%
h2-hermonville 28-07-2026 - 13:34 24.8°C / 46%
h1-hermonville 28-07-2026 - 13:34 25.3°C / 43.5%
h3-hermonville 28-07-2026 - 13:30 26.1°C / 41.5%
h2-hermonville 28-07-2026 - 13:24 25.7°C / 43.5%
h1-hermonville 28-07-2026 - 13:24 24.9°C / 44.5%
h3-hermonville 28-07-2026 - 13:20 26.5°C / 40.5%
h2-hermonville 28-07-2026 - 13:14 24.6°C / 45.5%
h1-hermonville 28-07-2026 - 13:14 24.8°C / 44.5%
h3-hermonville 28-07-2026 - 13:10 26.1°C / 41.5%
h4-hermonville 28-07-2026 - 13:08 26.9°C / 39%
h1-hermonville 28-07-2026 - 13:04 24.7°C / 43.5%
h3-hermonville 28-07-2026 - 13:00 25.7°C / 42.5%
h2-hermonville 28-07-2026 - 12:54 24.7°C / 44.5%
h1-hermonville 28-07-2026 - 12:54 24.3°C / 44.5%
h3-hermonville 28-07-2026 - 12:50 25.4°C / 42.5%
h2-hermonville 28-07-2026 - 12:44 24.2°C / 45.5%
h1-hermonville 28-07-2026 - 12:44 24.5°C / 45%
h3-hermonville 28-07-2026 - 12:40 25.4°C / 42.5%
h4-hermonville 28-07-2026 - 12:38 26.4°C / 39.5%
h2-hermonville 28-07-2026 - 12:34 24.2°C / 44.5%
h1-hermonville 28-07-2026 - 12:34 24.3°C / 44.5%
h3-hermonville 28-07-2026 - 12:30 25.2°C / 42.5%
h4-hermonville 28-07-2026 - 12:28 27.3°C / 36.5%
h2-hermonville 28-07-2026 - 12:24 24.2°C / 44.5%
h1-hermonville 28-07-2026 - 12:24 24.2°C / 44%
h3-hermonville 28-07-2026 - 12:20 25°C / 42%
h2-hermonville 28-07-2026 - 12:14 23.9°C / 45.5%
h1-hermonville 28-07-2026 - 12:14 24°C / 45.5%
h3-hermonville 28-07-2026 - 12:10 24.9°C / 43.5%
h1-hermonville 28-07-2026 - 12:04 23.7°C / 47%
h3-hermonville 28-07-2026 - 12:00 24.4°C / 46%
h4-hermonville 28-07-2026 - 11:58 32.2°C / 30.5%
h2-hermonville 28-07-2026 - 11:54 23.4°C / 49%
h1-hermonville 28-07-2026 - 11:54 23.6°C / 48%
h3-hermonville 28-07-2026 - 11:50 24.3°C / 46%
h4-hermonville 28-07-2026 - 11:48 30.8°C / 34.5%
h2-hermonville 28-07-2026 - 11:44 23.1°C / 50.5%
h1-hermonville 28-07-2026 - 11:44 23.4°C / 49%
h4-hermonville 28-07-2026 - 11:38 31.4°C / 32.5%
h2-hermonville 28-07-2026 - 11:34 22.8°C / 51.5%
h1-hermonville 28-07-2026 - 11:34 23.4°C / 49.5%
h3-hermonville 28-07-2026 - 11:30 23.4°C / 49%
h4-hermonville 28-07-2026 - 11:28 31.3°C / 33%
h2-hermonville 28-07-2026 - 11:24 22.7°C / 51.5%
h1-hermonville 28-07-2026 - 11:24 23.2°C / 50%
h3-hermonville 28-07-2026 - 11:20 23.3°C / 49%
h4-hermonville 28-07-2026 - 11:18 30.5°C / 34.5%
h2-hermonville 28-07-2026 - 11:14 22.2°C / 53.5%
h1-hermonville 28-07-2026 - 11:14 23.2°C / 51%
h3-hermonville 28-07-2026 - 11:10 22.9°C / 51.5%
h4-hermonville 28-07-2026 - 11:08 30.3°C / 35%
h2-hermonville 28-07-2026 - 11:04 22.2°C / 53%
h1-hermonville 28-07-2026 - 11:04 22.9°C / 51.5%
h3-hermonville 28-07-2026 - 11:00 22.6°C / 52.5%
h4-hermonville 28-07-2026 - 10:58 29.3°C / 36.5%
h2-hermonville 28-07-2026 - 10:54 21.9°C / 54.5%
h1-hermonville 28-07-2026 - 10:54 22.5°C / 52.5%
h3-hermonville 28-07-2026 - 10:50 22.2°C / 53.5%
h4-hermonville 28-07-2026 - 10:48 29.9°C / 35%
h2-hermonville 28-07-2026 - 10:44 21.4°C / 56%
h1-hermonville 28-07-2026 - 10:44 22.2°C / 53.5%
h3-hermonville 28-07-2026 - 10:40 22°C / 53.5%
h4-hermonville 28-07-2026 - 10:38 29.8°C / 35.5%
h2-hermonville 28-07-2026 - 10:34 21.3°C / 56.5%
h1-hermonville 28-07-2026 - 10:34 21.9°C / 54.5%
h4-hermonville 28-07-2026 - 10:28 29.2°C / 37.5%
h2-hermonville 28-07-2026 - 10:24 20.8°C / 58%
h1-hermonville 28-07-2026 - 10:24 21.3°C / 56.5%
h3-hermonville 28-07-2026 - 10:20 21.3°C / 56%
h4-hermonville 28-07-2026 - 10:18 29°C / 38%
h2-hermonville 28-07-2026 - 10:14 20.7°C / 59%
h1-hermonville 28-07-2026 - 10:14 20.8°C / 58.5%
h3-hermonville 28-07-2026 - 10:10 21°C / 58%
h4-hermonville 28-07-2026 - 10:08 28.2°C / 39%
h2-hermonville 28-07-2026 - 10:04 20.4°C / 59.5%
h1-hermonville 28-07-2026 - 10:04 20.5°C / 59.5%
h3-hermonville 28-07-2026 - 10:00 20.8°C / 58%
h4-hermonville 28-07-2026 - 09:58 27.4°C / 40.5%
h2-hermonville 28-07-2026 - 09:54 19.9°C / 61.5%
h1-hermonville 28-07-2026 - 09:54 19.9°C / 61%
h3-hermonville 28-07-2026 - 09:50 20.5°C / 59%
h4-hermonville 28-07-2026 - 09:48 26.7°C / 42.5%
h2-hermonville 28-07-2026 - 09:44 19.9°C / 61.5%
h1-hermonville 28-07-2026 - 09:44 19.5°C / 61.5%
h3-hermonville 28-07-2026 - 09:40 20.2°C / 60%
h4-hermonville 28-07-2026 - 09:38 26.3°C / 43%
h2-hermonville 28-07-2026 - 09:34 19.6°C / 62%
h1-hermonville 28-07-2026 - 09:34 19.1°C / 63.5%
h3-hermonville 28-07-2026 - 09:30 20.1°C / 60.5%
h4-hermonville 28-07-2026 - 09:28 25.8°C / 44.5%
h2-hermonville 28-07-2026 - 09:24 19°C / 64%
h1-hermonville 28-07-2026 - 09:24 18.6°C / 65%
h3-hermonville 28-07-2026 - 09:20 19.7°C / 61%
h4-hermonville 28-07-2026 - 09:18 25.1°C / 46%
h2-hermonville 28-07-2026 - 09:14 19°C / 63.5%
h1-hermonville 28-07-2026 - 09:14 18.3°C / 64.5%
h3-hermonville 28-07-2026 - 09:10 19.5°C / 61%
h4-hermonville 28-07-2026 - 09:08 25°C / 45.5%
h2-hermonville 28-07-2026 - 09:04 18.6°C / 64%
h1-hermonville 28-07-2026 - 09:04 17.9°C / 66%
h3-hermonville 28-07-2026 - 09:00 19.4°C / 61%
h4-hermonville 28-07-2026 - 08:58 23.8°C / 48%
h2-hermonville 28-07-2026 - 08:54 18.7°C / 63.5%
h1-hermonville 28-07-2026 - 08:54 17.7°C / 66%
h3-hermonville 28-07-2026 - 08:50 19.2°C / 61%
h4-hermonville 28-07-2026 - 08:48 22.5°C / 50%
h2-hermonville 28-07-2026 - 08:44 17.8°C / 66%
h1-hermonville 28-07-2026 - 08:44 17.7°C / 65.5%
h3-hermonville 28-07-2026 - 08:40 18.9°C / 61.5%
h4-hermonville 28-07-2026 - 08:38 20.5°C / 56%
h2-hermonville 28-07-2026 - 08:34 17.7°C / 66%
h1-hermonville 28-07-2026 - 08:34 17.4°C / 66.5%
h4-hermonville 28-07-2026 - 08:28 19.5°C / 59%
h2-hermonville 28-07-2026 - 08:24 17.7°C / 66.5%
h1-hermonville 28-07-2026 - 08:24 17.1°C / 67%
h3-hermonville 28-07-2026 - 08:20 18.5°C / 63%
h4-hermonville 28-07-2026 - 08:18 18.6°C / 60.5%
h1-hermonville 28-07-2026 - 08:14 17.3°C / 66.5%
h3-hermonville 28-07-2026 - 08:10 18.1°C / 64.5%
h4-hermonville 28-07-2026 - 08:08 18.4°C / 62%
h2-hermonville 28-07-2026 - 08:04 17.4°C / 67.5%
h1-hermonville 28-07-2026 - 08:04 17.1°C / 68%
h4-hermonville 28-07-2026 - 07:58 18.2°C / 62.5%
h2-hermonville 28-07-2026 - 07:54 16.8°C / 69.5%
h1-hermonville 28-07-2026 - 07:54 16.8°C / 68.5%
h3-hermonville 28-07-2026 - 07:50 17.3°C / 68%
h4-hermonville 28-07-2026 - 07:48 18.1°C / 63.5%
h2-hermonville 28-07-2026 - 07:44 16.4°C / 70.5%
h1-hermonville 28-07-2026 - 07:44 17°C / 68.5%
h3-hermonville 28-07-2026 - 07:40 16.4°C / 69.5%
h4-hermonville 28-07-2026 - 07:38 18°C / 63%
h2-hermonville 28-07-2026 - 07:34 16°C / 71.5%
h1-hermonville 28-07-2026 - 07:34 16.7°C / 69%
h3-hermonville 28-07-2026 - 07:30 16.1°C / 71%
h4-hermonville 28-07-2026 - 07:28 17.8°C / 64%
h2-hermonville 28-07-2026 - 07:24 15.5°C / 73%
h1-hermonville 28-07-2026 - 07:24 16.6°C / 69%
h3-hermonville 28-07-2026 - 07:20 15.8°C / 71.5%
h4-hermonville 28-07-2026 - 07:18 17.6°C / 64.5%
h2-hermonville 28-07-2026 - 07:14 15.3°C / 75%
h1-hermonville 28-07-2026 - 07:14 16.6°C / 69%
h3-hermonville 28-07-2026 - 07:10 15.6°C / 72.5%
h4-hermonville 28-07-2026 - 07:08 17.5°C / 64.5%
h2-hermonville 28-07-2026 - 07:04 15.1°C / 74.5%
h1-hermonville 28-07-2026 - 07:04 16.2°C / 70%
h3-hermonville 28-07-2026 - 07:00 15.3°C / 73%
h4-hermonville 28-07-2026 - 06:58 17.3°C / 64.5%
h2-hermonville 28-07-2026 - 06:54 15.4°C / 73%
h1-hermonville 28-07-2026 - 06:54 15.3°C / 72.5%
h3-hermonville 28-07-2026 - 06:50 15.5°C / 71.5%
h4-hermonville 28-07-2026 - 06:48 16.5°C / 67%
h2-hermonville 28-07-2026 - 06:44 15°C / 74%
h1-hermonville 28-07-2026 - 06:44 14.9°C / 74%
h3-hermonville 28-07-2026 - 06:40 15.8°C / 70.5%
h4-hermonville 28-07-2026 - 06:38 16.5°C / 67%
h2-hermonville 28-07-2026 - 06:34 15.1°C / 73%
h1-hermonville 28-07-2026 - 06:34 14.6°C / 75%
h3-hermonville 28-07-2026 - 06:30 15.7°C / 70.5%
h4-hermonville 28-07-2026 - 06:28 16.4°C / 66.5%
h2-hermonville 28-07-2026 - 06:24 15.5°C / 72%
h1-hermonville 28-07-2026 - 06:24 14.9°C / 73%
h3-hermonville 28-07-2026 - 06:20 15.6°C / 70.5%
h4-hermonville 28-07-2026 - 06:18 16.5°C / 66%
h2-hermonville 28-07-2026 - 06:14 15.4°C / 72%
h1-hermonville 28-07-2026 - 06:14 15.2°C / 72.5%
h3-hermonville 28-07-2026 - 06:10 15.9°C / 70%
h4-hermonville 28-07-2026 - 06:08 16.8°C / 65%
h2-hermonville 28-07-2026 - 06:04 15.2°C / 72.5%
h1-hermonville 28-07-2026 - 06:04 15.3°C / 72%
h3-hermonville 28-07-2026 - 06:00 15.7°C / 69.5%
h4-hermonville 28-07-2026 - 05:58 17.3°C / 63%
h2-hermonville 28-07-2026 - 05:54 15.1°C / 73%
h1-hermonville 28-07-2026 - 05:54 15.7°C / 70%
h3-hermonville 28-07-2026 - 05:50 15.8°C / 69.5%
h4-hermonville 28-07-2026 - 05:48 17.5°C / 62%
h2-hermonville 28-07-2026 - 05:44 15.2°C / 72%
h1-hermonville 28-07-2026 - 05:44 16°C / 68.5%
h3-hermonville 28-07-2026 - 05:40 16.5°C / 67%
h4-hermonville 28-07-2026 - 05:38 17.5°C / 62%
h1-hermonville 28-07-2026 - 05:34 16.5°C / 67%
h3-hermonville 28-07-2026 - 05:30 16.1°C / 68%
h4-hermonville 28-07-2026 - 05:28 17.9°C / 60.5%
h2-hermonville 28-07-2026 - 05:24 15.6°C / 71%
h1-hermonville 28-07-2026 - 05:24 16.5°C / 67%
h3-hermonville 28-07-2026 - 05:20 16.8°C / 66%
h4-hermonville 28-07-2026 - 05:18 17.8°C / 61.5%
h2-hermonville 28-07-2026 - 05:14 16°C / 69.5%
h3-hermonville 28-07-2026 - 05:10 16.6°C / 66.5%
h4-hermonville 28-07-2026 - 05:08 18.2°C / 59.5%
h2-hermonville 28-07-2026 - 05:04 16.4°C / 68%
h1-hermonville 28-07-2026 - 05:04 17°C / 65%
h3-hermonville 28-07-2026 - 05:00 16.7°C / 65.5%
h4-hermonville 28-07-2026 - 04:58 18.7°C / 58.5%
h2-hermonville 28-07-2026 - 04:54 16.6°C / 67%
h1-hermonville 28-07-2026 - 04:54 17.6°C / 63%
h3-hermonville 28-07-2026 - 04:50 17.2°C / 63.5%
h4-hermonville 28-07-2026 - 04:48 18.8°C / 57.5%
h2-hermonville 28-07-2026 - 04:44 16.9°C / 65.5%
h1-hermonville 28-07-2026 - 04:44 17.8°C / 62%
h3-hermonville 28-07-2026 - 04:40 17.7°C / 62%
h4-hermonville 28-07-2026 - 04:38 18.6°C / 58%
h2-hermonville 28-07-2026 - 04:34 16.9°C / 66%
h1-hermonville 28-07-2026 - 04:34 17.6°C / 62.5%
h3-hermonville 28-07-2026 - 04:30 17.8°C / 62%
h4-hermonville 28-07-2026 - 04:28 18.8°C / 57.5%
h2-hermonville 28-07-2026 - 04:24 16.4°C / 67.5%
h1-hermonville 28-07-2026 - 04:24 17.8°C / 62.5%
h3-hermonville 28-07-2026 - 04:20 17.4°C / 63.5%
h4-hermonville 28-07-2026 - 04:18 19.1°C / 57%
h1-hermonville 28-07-2026 - 04:14 17.9°C / 61.5%
h3-hermonville 28-07-2026 - 04:10 17.5°C / 62.5%
h4-hermonville 28-07-2026 - 04:08 19.1°C / 57%
h2-hermonville 28-07-2026 - 04:04 16.8°C / 66%
h1-hermonville 28-07-2026 - 04:04 17.9°C / 61.5%
h3-hermonville 28-07-2026 - 04:00 18.1°C / 61%
h2-hermonville 28-07-2026 - 03:54 16.8°C / 66%
h1-hermonville 28-07-2026 - 03:54 18°C / 61.5%
h3-hermonville 28-07-2026 - 03:50 17.8°C / 62.5%
h4-hermonville 28-07-2026 - 03:48 19.2°C / 57%
h2-hermonville 28-07-2026 - 03:44 16.9°C / 66%
h1-hermonville 28-07-2026 - 03:44 18.1°C / 61%
h3-hermonville 28-07-2026 - 03:40 17.6°C / 62.5%
h4-hermonville 28-07-2026 - 03:38 19.1°C / 57%
h2-hermonville 28-07-2026 - 03:34 17°C / 66%
h1-hermonville 28-07-2026 - 03:34 18.2°C / 61.5%
h3-hermonville 28-07-2026 - 03:30 17.1°C / 64%
h4-hermonville 28-07-2026 - 03:28 19.2°C / 56.5%
h2-hermonville 28-07-2026 - 03:24 17.4°C / 64.5%
h1-hermonville 28-07-2026 - 03:24 18.1°C / 61.5%
h3-hermonville 28-07-2026 - 03:20 17.2°C / 63%
h4-hermonville 28-07-2026 - 03:18 19.3°C / 57%
h1-hermonville 28-07-2026 - 03:14 18°C / 61.5%
h3-hermonville 28-07-2026 - 03:10 17.4°C / 63%
h4-hermonville 28-07-2026 - 03:08 19.1°C / 57.5%
h2-hermonville 28-07-2026 - 03:04 17.2°C / 66%
h1-hermonville 28-07-2026 - 03:04 18°C / 62%
h3-hermonville 28-07-2026 - 03:00 17.4°C / 63.5%
h4-hermonville 28-07-2026 - 02:58 19.1°C / 57.5%
h2-hermonville 28-07-2026 - 02:54 17.4°C / 64%
h1-hermonville 28-07-2026 - 02:54 17.8°C / 62.5%
h3-hermonville 28-07-2026 - 02:50 17.4°C / 63.5%
h4-hermonville 28-07-2026 - 02:48 19°C / 58%
h1-hermonville 28-07-2026 - 02:44 18.1°C / 62%
h3-hermonville 28-07-2026 - 02:40 17.1°C / 64.5%
h4-hermonville 28-07-2026 - 02:38 19.5°C / 56.5%
h2-hermonville 28-07-2026 - 02:34 17.2°C / 66%
h1-hermonville 28-07-2026 - 02:34 18.3°C / 61%
h3-hermonville 28-07-2026 - 02:30 18°C / 61.5%
h4-hermonville 28-07-2026 - 02:28 19.4°C / 56.5%
h2-hermonville 28-07-2026 - 02:24 17.2°C / 65%
h3-hermonville 28-07-2026 - 02:20 18.1°C / 61.5%
h4-hermonville 28-07-2026 - 02:18 19.4°C / 56.5%
h1-hermonville 28-07-2026 - 02:14 18.4°C / 61.5%
h3-hermonville 28-07-2026 - 02:10 17.6°C / 63%
h4-hermonville 28-07-2026 - 02:08 19.7°C / 55.5%
h2-hermonville 28-07-2026 - 02:04 17.9°C / 62.5%
h1-hermonville 28-07-2026 - 02:04 18.3°C / 61%
h3-hermonville 28-07-2026 - 02:00 17.7°C / 62.5%
h4-hermonville 28-07-2026 - 01:58 19.8°C / 55.5%
h2-hermonville 28-07-2026 - 01:54 18.2°C / 61.5%
h1-hermonville 28-07-2026 - 01:54 18°C / 62%
h3-hermonville 28-07-2026 - 01:50 18.2°C / 61%
h4-hermonville 28-07-2026 - 01:48 19.6°C / 55.5%
h2-hermonville 28-07-2026 - 01:44 18.4°C / 60%
h1-hermonville 28-07-2026 - 01:44 18.3°C / 60%
h3-hermonville 28-07-2026 - 01:40 18.4°C / 59.5%
h4-hermonville 28-07-2026 - 01:38 19.7°C / 55%
h2-hermonville 28-07-2026 - 01:34 18.4°C / 60%
h1-hermonville 28-07-2026 - 01:34 18.5°C / 60%
h3-hermonville 28-07-2026 - 01:30 18.3°C / 60%
h4-hermonville 28-07-2026 - 01:28 19.6°C / 55.5%
h2-hermonville 28-07-2026 - 01:24 18.7°C / 59.5%
h1-hermonville 28-07-2026 - 01:24 18.2°C / 61%
h3-hermonville 28-07-2026 - 01:20 18.9°C / 59%
h4-hermonville 28-07-2026 - 01:18 19.6°C / 55.5%
h2-hermonville 28-07-2026 - 01:14 19°C / 59%
h1-hermonville 28-07-2026 - 01:14 18.4°C / 60.5%
h3-hermonville 28-07-2026 - 01:10 18.9°C / 58.5%
h4-hermonville 28-07-2026 - 01:08 20.1°C / 54.5%
h2-hermonville 28-07-2026 - 01:04 19.1°C / 59%
h1-hermonville 28-07-2026 - 01:04 18.5°C / 60.5%
h3-hermonville 28-07-2026 - 01:00 19.6°C / 56.5%
h4-hermonville 28-07-2026 - 00:58 20.1°C / 54.5%
h2-hermonville 28-07-2026 - 00:54 18.8°C / 59.5%
h1-hermonville 28-07-2026 - 00:54 18.4°C / 59.5%
h3-hermonville 28-07-2026 - 00:50 20°C / 55%
h4-hermonville 28-07-2026 - 00:48 20.2°C / 54%
h2-hermonville 28-07-2026 - 00:44 18.9°C / 59%
h1-hermonville 28-07-2026 - 00:44 18.7°C / 59%
h3-hermonville 28-07-2026 - 00:40 20.4°C / 54.5%
h4-hermonville 28-07-2026 - 00:38 20.7°C / 53%
h2-hermonville 28-07-2026 - 00:34 19.9°C / 56%
h1-hermonville 28-07-2026 - 00:34 19.1°C / 57.5%
h3-hermonville 28-07-2026 - 00:30 20.4°C / 54%
h4-hermonville 28-07-2026 - 00:28 20.6°C / 53.5%
h2-hermonville 28-07-2026 - 00:24 19.9°C / 56.5%
h1-hermonville 28-07-2026 - 00:24 19.2°C / 57.5%
h3-hermonville 28-07-2026 - 00:20 20.2°C / 55%
h4-hermonville 28-07-2026 - 00:18 20.7°C / 53%
h2-hermonville 28-07-2026 - 00:14 20.5°C / 54.5%
h1-hermonville 28-07-2026 - 00:14 19.5°C / 56.5%
h3-hermonville 28-07-2026 - 00:10 20.4°C / 54.5%
h4-hermonville 28-07-2026 - 00:08 20.7°C / 52.5%
h2-hermonville 28-07-2026 - 00:04 20.8°C / 53%
h1-hermonville 28-07-2026 - 00:04 19.8°C / 56%